sensor_id;sensor_type;location;lat;lon;timestamp;P1;durP1;ratioP1;P2;durP2;ratioP2
51957;SDS011;41120;51.820;20.804;2024-03-02T00:01:35;35.00;;;21.38;;
51957;SDS011;41120;51.820;20.804;2024-03-02T00:04:03;40.47;;;22.20;;
51957;SDS011;41120;51.820;20.804;2024-03-02T00:06:29;37.60;;;20.83;;
51957;SDS011;41120;51.820;20.804;2024-03-02T00:08:56;37.97;;;20.88;;
51957;SDS011;41120;51.820;20.804;2024-03-02T00:11:23;39.90;;;21.95;;
51957;SDS011;41120;51.820;20.804;2024-03-02T00:13:52;39.35;;;21.85;;
51957;SDS011;41120;51.820;20.804;2024-03-02T00:16:18;38.95;;;21.60;;
51957;SDS011;41120;51.820;20.804;2024-03-02T00:18:44;41.38;;;22.02;;
51957;SDS011;41120;51.820;20.804;2024-03-02T00:21:10;38.67;;;22.93;;
51957;SDS011;41120;51.820;20.804;2024-03-02T00:23:38;42.22;;;23.48;;
51957;SDS011;41120;51.820;20.804;2024-03-02T00:26:05;47.67;;;25.25;;
51957;SDS011;41120;51.820;20.804;2024-03-02T00:28:32;42.95;;;24.58;;
51957;SDS011;41120;51.820;20.804;2024-03-02T00:34:23;43.33;;;22.67;;
51957;SDS011;41120;51.820;20.804;2024-03-02T00:36:49;43.92;;;23.80;;
51957;SDS011;41120;51.820;20.804;2024-03-02T00:39:15;44.33;;;24.40;;
51957;SDS011;41120;51.820;20.804;2024-03-02T00:41:43;43.10;;;24.42;;
51957;SDS011;41120;51.820;20.804;2024-03-02T00:44:12;47.53;;;25.53;;
51957;SDS011;41120;51.820;20.804;2024-03-02T00:46:39;41.95;;;23.77;;
51957;SDS011;41120;51.820;20.804;2024-03-02T00:49:06;47.13;;;25.88;;
51957;SDS011;41120;51.820;20.804;2024-03-02T00:51:38;49.92;;;26.17;;
51957;SDS011;41120;51.820;20.804;2024-03-02T00:54:05;48.13;;;27.17;;
51957;SDS011;41120;51.820;20.804;2024-03-02T00:56:32;46.63;;;26.63;;
51957;SDS011;41120;51.820;20.804;2024-03-02T00:58:59;46.75;;;26.27;;
51957;SDS011;41120;51.820;20.804;2024-03-02T01:01:25;50.75;;;26.85;;
51957;SDS011;41120;51.820;20.804;2024-03-02T01:03:53;53.08;;;27.27;;
51957;SDS011;41120;51.820;20.804;2024-03-02T01:06:19;52.75;;;25.73;;
51957;SDS011;41120;51.820;20.804;2024-03-02T01:08:45;47.00;;;26.53;;
51957;SDS011;41120;51.820;20.804;2024-03-02T01:11:13;48.95;;;25.95;;
51957;SDS011;41120;51.820;20.804;2024-03-02T01:13:39;48.03;;;26.20;;
51957;SDS011;41120;51.820;20.804;2024-03-02T01:16:05;53.65;;;27.70;;
51957;SDS011;41120;51.820;20.804;2024-03-02T01:18:31;47.72;;;25.75;;
51957;SDS011;41120;51.820;20.804;2024-03-02T01:20:57;52.65;;;26.95;;
51957;SDS011;41120;51.820;20.804;2024-03-02T01:23:24;47.00;;;25.23;;
51957;SDS011;41120;51.820;20.804;2024-03-02T01:25:50;47.15;;;26.13;;
51957;SDS011;41120;51.820;20.804;2024-03-02T01:28:17;51.30;;;28.00;;
51957;SDS011;41120;51.820;20.804;2024-03-02T01:30:46;46.83;;;25.88;;
51957;SDS011;41120;51.820;20.804;2024-03-02T01:33:14;49.80;;;26.27;;
51957;SDS011;41120;51.820;20.804;2024-03-02T01:35:40;46.42;;;25.33;;
51957;SDS011;41120;51.820;20.804;2024-03-02T01:38:06;49.70;;;25.83;;
51957;SDS011;41120;51.820;20.804;2024-03-02T01:40:41;51.50;;;26.15;;
51957;SDS011;41120;51.820;20.804;2024-03-02T01:43:13;48.45;;;26.40;;
51957;SDS011;41120;51.820;20.804;2024-03-02T01:45:42;52.13;;;27.13;;
51957;SDS011;41120;51.820;20.804;2024-03-02T01:48:08;47.35;;;25.20;;
51957;SDS011;41120;51.820;20.804;2024-03-02T01:50:37;46.35;;;26.42;;
51957;SDS011;41120;51.820;20.804;2024-03-02T01:53:05;46.43;;;24.77;;
51957;SDS011;41120;51.820;20.804;2024-03-02T01:55:42;45.60;;;24.13;;
51957;SDS011;41120;51.820;20.804;2024-03-02T01:58:09;47.60;;;25.25;;
51957;SDS011;41120;51.820;20.804;2024-03-02T02:00:40;51.33;;;25.90;;
51957;SDS011;41120;51.820;20.804;2024-03-02T02:03:06;46.75;;;25.55;;
51957;SDS011;41120;51.820;20.804;2024-03-02T02:05:33;48.63;;;25.25;;
51957;SDS011;41120;51.820;20.804;2024-03-02T02:08:00;49.83;;;27.42;;
51957;SDS011;41120;51.820;20.804;2024-03-02T02:10:27;47.00;;;25.60;;
51957;SDS011;41120;51.820;20.804;2024-03-02T02:12:53;49.30;;;25.83;;
51957;SDS011;41120;51.820;20.804;2024-03-02T02:15:24;48.70;;;25.15;;
51957;SDS011;41120;51.820;20.804;2024-03-02T02:18:04;45.03;;;23.30;;
51957;SDS011;41120;51.820;20.804;2024-03-02T02:23:00;43.70;;;22.05;;
51957;SDS011;41120;51.820;20.804;2024-03-02T02:25:29;43.83;;;23.83;;
51957;SDS011;41120;51.820;20.804;2024-03-02T02:27:59;46.95;;;24.38;;
51957;SDS011;41120;51.820;20.804;2024-03-02T02:36:26;42.95;;;23.67;;
51957;SDS011;41120;51.820;20.804;2024-03-02T02:39:02;43.80;;;24.55;;
51957;SDS011;41120;51.820;20.804;2024-03-02T02:41:34;42.05;;;23.60;;
51957;SDS011;41120;51.820;20.804;2024-03-02T02:44:00;43.63;;;23.63;;
51957;SDS011;41120;51.820;20.804;2024-03-02T02:46:30;40.60;;;23.98;;
51957;SDS011;41120;51.820;20.804;2024-03-02T02:49:08;44.53;;;24.40;;
51957;SDS011;41120;51.820;20.804;2024-03-02T02:51:35;48.22;;;24.83;;
51957;SDS011;41120;51.820;20.804;2024-03-02T02:54:04;48.40;;;24.17;;
51957;SDS011;41120;51.820;20.804;2024-03-02T02:59:22;41.72;;;23.02;;
51957;SDS011;41120;51.820;20.804;2024-03-02T03:01:55;44.13;;;23.08;;
51957;SDS011;41120;51.820;20.804;2024-03-02T03:04:35;46.63;;;24.08;;
51957;SDS011;41120;51.820;20.804;2024-03-02T03:07:05;45.55;;;23.98;;
51957;SDS011;41120;51.820;20.804;2024-03-02T03:09:33;44.47;;;23.23;;
51957;SDS011;41120;51.820;20.804;2024-03-02T03:12:04;45.08;;;24.33;;
51957;SDS011;41120;51.820;20.804;2024-03-02T03:14:30;41.75;;;23.15;;
51957;SDS011;41120;51.820;20.804;2024-03-02T03:16:56;41.23;;;22.83;;
51957;SDS011;41120;51.820;20.804;2024-03-02T03:19:22;43.33;;;23.63;;
51957;SDS011;41120;51.820;20.804;2024-03-02T03:21:49;48.05;;;24.90;;
51957;SDS011;41120;51.820;20.804;2024-03-02T03:24:15;48.00;;;25.58;;
51957;SDS011;41120;51.820;20.804;2024-03-02T03:26:41;46.00;;;23.17;;
51957;SDS011;41120;51.820;20.804;2024-03-02T03:29:07;46.03;;;23.67;;
51957;SDS011;41120;51.820;20.804;2024-03-02T03:31:34;45.85;;;23.27;;
51957;SDS011;41120;51.820;20.804;2024-03-02T03:34:01;45.72;;;23.52;;
51957;SDS011;41120;51.820;20.804;2024-03-02T03:36:27;46.78;;;23.40;;
51957;SDS011;41120;51.820;20.804;2024-03-02T03:38:53;48.90;;;24.50;;
51957;SDS011;41120;51.820;20.804;2024-03-02T03:41:19;44.65;;;24.05;;
51957;SDS011;41120;51.820;20.804;2024-03-02T03:43:45;45.20;;;23.63;;
51957;SDS011;41120;51.820;20.804;2024-03-02T03:46:12;48.92;;;24.95;;
51957;SDS011;41120;51.820;20.804;2024-03-02T03:48:37;47.93;;;23.83;;
51957;SDS011;41120;51.820;20.804;2024-03-02T03:51:03;45.50;;;22.80;;
51957;SDS011;41120;51.820;20.804;2024-03-02T03:53:29;51.77;;;24.63;;
51957;SDS011;41120;51.820;20.804;2024-03-02T03:55:55;47.38;;;24.17;;
51957;SDS011;41120;51.820;20.804;2024-03-02T03:58:21;48.33;;;23.63;;
51957;SDS011;41120;51.820;20.804;2024-03-02T04:00:47;53.13;;;25.17;;
51957;SDS011;41120;51.820;20.804;2024-03-02T04:03:13;50.17;;;25.30;;
51957;SDS011;41120;51.820;20.804;2024-03-02T04:05:41;47.75;;;23.48;;
51957;SDS011;41120;51.820;20.804;2024-03-02T04:08:07;59.10;;;27.40;;
51957;SDS011;41120;51.820;20.804;2024-03-02T04:10:33;50.47;;;25.40;;
51957;SDS011;41120;51.820;20.804;2024-03-02T04:12:59;52.95;;;26.50;;
51957;SDS011;41120;51.820;20.804;2024-03-02T04:15:26;51.88;;;26.38;;
51957;SDS011;41120;51.820;20.804;2024-03-02T04:20:25;60.00;;;27.05;;
51957;SDS011;41120;51.820;20.804;2024-03-02T04:22:51;55.37;;;27.50;;
51957;SDS011;41120;51.820;20.804;2024-03-02T04:25:17;62.17;;;29.85;;
51957;SDS011;41120;51.820;20.804;2024-03-02T04:27:43;61.20;;;29.23;;
51957;SDS011;41120;51.820;20.804;2024-03-02T04:30:09;56.75;;;28.02;;
51957;SDS011;41120;51.820;20.804;2024-03-02T04:32:35;60.20;;;30.23;;
51957;SDS011;41120;51.820;20.804;2024-03-02T04:38:03;66.70;;;29.95;;
51957;SDS011;41120;51.820;20.804;2024-03-02T04:40:30;60.22;;;29.60;;
51957;SDS011;41120;51.820;20.804;2024-03-02T04:42:56;62.63;;;29.90;;
51957;SDS011;41120;51.820;20.804;2024-03-02T04:45:23;66.88;;;32.10;;
51957;SDS011;41120;51.820;20.804;2024-03-02T04:47:49;67.30;;;32.78;;
51957;SDS011;41120;51.820;20.804;2024-03-02T04:50:15;67.53;;;30.35;;
51957;SDS011;41120;51.820;20.804;2024-03-02T04:52:41;72.23;;;32.03;;
51957;SDS011;41120;51.820;20.804;2024-03-02T04:55:07;67.13;;;30.10;;
51957;SDS011;41120;51.820;20.804;2024-03-02T04:57:50;69.18;;;31.73;;
51957;SDS011;41120;51.820;20.804;2024-03-02T05:00:17;71.32;;;31.33;;
51957;SDS011;41120;51.820;20.804;2024-03-02T05:02:43;69.07;;;31.60;;
51957;SDS011;41120;51.820;20.804;2024-03-02T05:05:09;72.53;;;34.53;;
51957;SDS011;41120;51.820;20.804;2024-03-02T05:07:35;76.07;;;33.30;;
51957;SDS011;41120;51.820;20.804;2024-03-02T05:10:01;76.97;;;34.05;;
51957;SDS011;41120;51.820;20.804;2024-03-02T05:12:27;77.77;;;34.60;;
51957;SDS011;41120;51.820;20.804;2024-03-02T05:15:09;77.82;;;33.80;;
51957;SDS011;41120;51.820;20.804;2024-03-02T05:17:41;77.15;;;33.88;;
51957;SDS011;41120;51.820;20.804;2024-03-02T05:20:10;81.45;;;35.53;;
51957;SDS011;41120;51.820;20.804;2024-03-02T05:22:37;79.90;;;34.25;;
51957;SDS011;41120;51.820;20.804;2024-03-02T05:25:03;84.65;;;36.38;;
51957;SDS011;41120;51.820;20.804;2024-03-02T05:27:29;81.00;;;37.05;;
51957;SDS011;41120;51.820;20.804;2024-03-02T05:29:56;84.60;;;36.47;;
51957;SDS011;41120;51.820;20.804;2024-03-02T05:32:23;92.82;;;38.00;;
51957;SDS011;41120;51.820;20.804;2024-03-02T05:34:49;87.75;;;38.17;;
51957;SDS011;41120;51.820;20.804;2024-03-02T05:37:18;89.60;;;36.35;;
51957;SDS011;41120;51.820;20.804;2024-03-02T05:39:46;88.32;;;36.78;;
51957;SDS011;41120;51.820;20.804;2024-03-02T05:42:11;96.00;;;38.47;;
51957;SDS011;41120;51.820;20.804;2024-03-02T05:44:38;89.68;;;37.35;;
51957;SDS011;41120;51.820;20.804;2024-03-02T05:47:04;89.60;;;37.07;;
51957;SDS011;41120;51.820;20.804;2024-03-02T05:49:30;91.45;;;36.72;;
51957;SDS011;41120;51.820;20.804;2024-03-02T05:51:56;98.20;;;38.83;;
51957;SDS011;41120;51.820;20.804;2024-03-02T05:54:22;91.57;;;36.90;;
51957;SDS011;41120;51.820;20.804;2024-03-02T05:56:50;92.72;;;36.70;;
51957;SDS011;41120;51.820;20.804;2024-03-02T05:59:20;98.63;;;39.63;;
51957;SDS011;41120;51.820;20.804;2024-03-02T06:01:46;97.97;;;38.33;;
51957;SDS011;41120;51.820;20.804;2024-03-02T06:04:15;95.20;;;39.03;;
51957;SDS011;41120;51.820;20.804;2024-03-02T06:06:41;99.17;;;37.57;;
51957;SDS011;41120;51.820;20.804;2024-03-02T06:09:07;97.53;;;39.70;;
51957;SDS011;41120;51.820;20.804;2024-03-02T06:11:34;100.90;;;41.13;;
51957;SDS011;41120;51.820;20.804;2024-03-02T06:14:00;94.03;;;40.17;;
51957;SDS011;41120;51.820;20.804;2024-03-02T06:16:28;92.53;;;38.83;;
51957;SDS011;41120;51.820;20.804;2024-03-02T06:18:54;98.00;;;39.03;;
51957;SDS011;41120;51.820;20.804;2024-03-02T06:21:23;96.47;;;39.10;;
51957;SDS011;41120;51.820;20.804;2024-03-02T06:23:49;102.70;;;38.67;;
51957;SDS011;41120;51.820;20.804;2024-03-02T06:26:15;103.55;;;40.90;;
51957;SDS011;41120;51.820;20.804;2024-03-02T06:32:08;105.37;;;39.80;;
51957;SDS011;41120;51.820;20.804;2024-03-02T06:34:42;99.13;;;39.03;;
51957;SDS011;41120;51.820;20.804;2024-03-02T06:37:08;103.17;;;39.97;;
51957;SDS011;41120;51.820;20.804;2024-03-02T06:39:45;100.67;;;40.33;;
51957;SDS011;41120;51.820;20.804;2024-03-02T06:42:26;99.65;;;39.60;;
51957;SDS011;41120;51.820;20.804;2024-03-02T06:44:52;107.17;;;40.20;;
51957;SDS011;41120;51.820;20.804;2024-03-02T06:47:19;98.50;;;38.20;;
51957;SDS011;41120;51.820;20.804;2024-03-02T06:49:46;101.03;;;41.05;;
51957;SDS011;41120;51.820;20.804;2024-03-02T06:52:12;101.03;;;40.50;;
51957;SDS011;41120;51.820;20.804;2024-03-02T06:54:38;107.20;;;42.30;;
51957;SDS011;41120;51.820;20.804;2024-03-02T06:59:37;110.30;;;41.87;;
51957;SDS011;41120;51.820;20.804;2024-03-02T07:02:03;107.67;;;43.97;;
51957;SDS011;41120;51.820;20.804;2024-03-02T07:04:29;113.77;;;44.83;;
51957;SDS011;41120;51.820;20.804;2024-03-02T07:06:55;113.67;;;42.37;;
51957;SDS011;41120;51.820;20.804;2024-03-02T07:09:23;110.43;;;42.53;;
51957;SDS011;41120;51.820;20.804;2024-03-02T07:11:49;119.60;;;42.67;;
51957;SDS011;41120;51.820;20.804;2024-03-02T07:14:16;114.57;;;40.93;;
51957;SDS011;41120;51.820;20.804;2024-03-02T07:16:51;117.37;;;42.20;;
51957;SDS011;41120;51.820;20.804;2024-03-02T07:19:23;111.87;;;42.53;;
51957;SDS011;41120;51.820;20.804;2024-03-02T07:21:50;117.10;;;43.03;;
51957;SDS011;41120;51.820;20.804;2024-03-02T07:24:17;120.87;;;44.20;;
51957;SDS011;41120;51.820;20.804;2024-03-02T07:26:46;116.87;;;42.23;;
51957;SDS011;41120;51.820;20.804;2024-03-02T07:29:15;109.20;;;41.13;;
51957;SDS011;41120;51.820;20.804;2024-03-02T07:32:11;117.63;;;41.33;;
51957;SDS011;41120;51.820;20.804;2024-03-02T07:34:50;123.50;;;42.73;;
51957;SDS011;41120;51.820;20.804;2024-03-02T07:37:33;121.35;;;42.65;;
51957;SDS011;41120;51.820;20.804;2024-03-02T07:40:05;113.63;;;43.23;;
51957;SDS011;41120;51.820;20.804;2024-03-02T07:42:35;122.67;;;43.23;;
51957;SDS011;41120;51.820;20.804;2024-03-02T07:52:23;123.72;;;44.28;;
51957;SDS011;41120;51.820;20.804;2024-03-02T07:55:30;115.30;;;42.90;;
51957;SDS011;41120;51.820;20.804;2024-03-02T07:58:51;119.47;;;41.17;;
51957;SDS011;41120;51.820;20.804;2024-03-02T08:01:44;114.10;;;41.40;;
51957;SDS011;41120;51.820;20.804;2024-03-02T08:04:40;108.10;;;40.90;;
51957;SDS011;41120;51.820;20.804;2024-03-02T08:07:23;113.40;;;40.83;;
51957;SDS011;41120;51.820;20.804;2024-03-02T08:09:50;109.43;;;42.90;;
51957;SDS011;41120;51.820;20.804;2024-03-02T08:12:41;104.93;;;39.77;;
51957;SDS011;41120;51.820;20.804;2024-03-02T08:15:09;115.18;;;42.90;;
51957;SDS011;41120;51.820;20.804;2024-03-02T08:17:35;105.67;;;40.37;;
51957;SDS011;41120;51.820;20.804;2024-03-02T08:20:04;108.47;;;40.47;;
51957;SDS011;41120;51.820;20.804;2024-03-02T08:25:27;110.10;;;40.97;;
51957;SDS011;41120;51.820;20.804;2024-03-02T08:27:54;106.43;;;41.23;;
51957;SDS011;41120;51.820;20.804;2024-03-02T08:30:20;107.73;;;41.60;;
51957;SDS011;41120;51.820;20.804;2024-03-02T08:32:47;104.77;;;41.83;;
51957;SDS011;41120;51.820;20.804;2024-03-02T08:35:13;104.57;;;40.57;;
51957;SDS011;41120;51.820;20.804;2024-03-02T08:37:41;105.40;;;42.50;;
51957;SDS011;41120;51.820;20.804;2024-03-02T08:40:09;112.20;;;41.00;;
51957;SDS011;41120;51.820;20.804;2024-03-02T08:42:40;103.47;;;37.63;;
51957;SDS011;41120;51.820;20.804;2024-03-02T08:45:06;98.80;;;39.50;;
51957;SDS011;41120;51.820;20.804;2024-03-02T08:47:32;96.00;;;40.20;;
51957;SDS011;41120;51.820;20.804;2024-03-02T08:50:00;102.93;;;40.83;;
51957;SDS011;41120;51.820;20.804;2024-03-02T08:52:28;98.93;;;38.70;;
51957;SDS011;41120;51.820;20.804;2024-03-02T08:54:54;102.03;;;38.67;;
51957;SDS011;41120;51.820;20.804;2024-03-02T08:57:20;105.97;;;40.43;;
51957;SDS011;41120;51.820;20.804;2024-03-02T08:59:46;95.73;;;37.50;;
51957;SDS011;41120;51.820;20.804;2024-03-02T09:02:13;102.47;;;40.00;;
51957;SDS011;41120;51.820;20.804;2024-03-02T09:04:39;91.63;;;39.07;;
51957;SDS011;41120;51.820;20.804;2024-03-02T09:07:05;106.97;;;42.00;;
51957;SDS011;41120;51.820;20.804;2024-03-02T09:09:33;101.03;;;39.63;;
51957;SDS011;41120;51.820;20.804;2024-03-02T09:12:00;101.17;;;39.00;;
51957;SDS011;41120;51.820;20.804;2024-03-02T09:14:26;99.00;;;38.67;;
51957;SDS011;41120;51.820;20.804;2024-03-02T09:16:53;101.17;;;40.63;;
51957;SDS011;41120;51.820;20.804;2024-03-02T09:19:19;91.67;;;37.50;;
51957;SDS011;41120;51.820;20.804;2024-03-02T09:21:45;100.67;;;40.20;;
51957;SDS011;41120;51.820;20.804;2024-03-02T09:24:17;97.50;;;38.60;;
51957;SDS011;41120;51.820;20.804;2024-03-02T09:26:43;94.10;;;39.13;;
51957;SDS011;41120;51.820;20.804;2024-03-02T09:29:09;87.43;;;36.90;;
51957;SDS011;41120;51.820;20.804;2024-03-02T09:31:39;92.77;;;37.70;;
51957;SDS011;41120;51.820;20.804;2024-03-02T09:34:05;89.50;;;36.83;;
51957;SDS011;41120;51.820;20.804;2024-03-02T09:36:31;94.63;;;38.93;;
51957;SDS011;41120;51.820;20.804;2024-03-02T09:38:57;92.50;;;38.00;;
51957;SDS011;41120;51.820;20.804;2024-03-02T09:41:23;87.77;;;37.17;;
51957;SDS011;41120;51.820;20.804;2024-03-02T09:43:50;91.33;;;38.07;;
51957;SDS011;41120;51.820;20.804;2024-03-02T09:46:16;92.40;;;38.30;;
51957;SDS011;41120;51.820;20.804;2024-03-02T09:48:43;86.50;;;37.70;;
51957;SDS011;41120;51.820;20.804;2024-03-02T09:51:10;93.47;;;39.27;;
51957;SDS011;41120;51.820;20.804;2024-03-02T09:53:36;92.70;;;37.27;;
51957;SDS011;41120;51.820;20.804;2024-03-02T09:56:03;85.90;;;35.37;;
51957;SDS011;41120;51.820;20.804;2024-03-02T09:58:30;83.03;;;36.63;;
51957;SDS011;41120;51.820;20.804;2024-03-02T10:00:56;89.87;;;35.03;;
51957;SDS011;41120;51.820;20.804;2024-03-02T10:03:22;99.27;;;40.60;;
51957;SDS011;41120;51.820;20.804;2024-03-02T10:05:49;89.30;;;38.10;;
51957;SDS011;41120;51.820;20.804;2024-03-02T10:08:15;92.63;;;40.60;;
51957;SDS011;41120;51.820;20.804;2024-03-02T10:10:44;88.80;;;35.87;;
51957;SDS011;41120;51.820;20.804;2024-03-02T10:13:11;82.77;;;36.93;;
51957;SDS011;41120;51.820;20.804;2024-03-02T10:15:43;78.47;;;35.60;;
51957;SDS011;41120;51.820;20.804;2024-03-02T10:18:10;81.67;;;35.53;;
51957;SDS011;41120;51.820;20.804;2024-03-02T10:20:39;83.17;;;36.43;;
51957;SDS011;41120;51.820;20.804;2024-03-02T10:23:12;82.17;;;37.93;;
51957;SDS011;41120;51.820;20.804;2024-03-02T10:25:48;83.77;;;36.63;;
51957;SDS011;41120;51.820;20.804;2024-03-02T10:28:15;74.57;;;33.70;;
51957;SDS011;41120;51.820;20.804;2024-03-02T10:30:48;75.13;;;35.17;;
51957;SDS011;41120;51.820;20.804;2024-03-02T10:33:17;76.40;;;36.20;;
51957;SDS011;41120;51.820;20.804;2024-03-02T10:35:45;77.80;;;34.83;;
51957;SDS011;41120;51.820;20.804;2024-03-02T10:38:13;77.30;;;36.57;;
51957;SDS011;41120;51.820;20.804;2024-03-02T10:40:39;76.10;;;35.93;;
51957;SDS011;41120;51.820;20.804;2024-03-02T10:43:19;80.60;;;36.97;;
51957;SDS011;41120;51.820;20.804;2024-03-02T10:48:31;86.57;;;40.57;;
51957;SDS011;41120;51.820;20.804;2024-03-02T10:53:51;81.83;;;38.40;;
51957;SDS011;41120;51.820;20.804;2024-03-02T10:56:26;78.67;;;36.60;;
51957;SDS011;41120;51.820;20.804;2024-03-02T11:04:57;81.28;;;37.45;;
51957;SDS011;41120;51.820;20.804;2024-03-02T11:07:33;80.37;;;36.63;;
51957;SDS011;41120;51.820;20.804;2024-03-02T11:10:08;80.50;;;37.50;;
51957;SDS011;41120;51.820;20.804;2024-03-02T11:18:14;84.27;;;37.87;;
51957;SDS011;41120;51.820;20.804;2024-03-02T11:23:52;79.97;;;36.20;;
51957;SDS011;41120;51.820;20.804;2024-03-02T11:26:21;78.65;;;37.50;;
51957;SDS011;41120;51.820;20.804;2024-03-02T11:29:00;86.30;;;38.13;;
51957;SDS011;41120;51.820;20.804;2024-03-02T11:31:56;92.07;;;40.60;;
51957;SDS011;41120;51.820;20.804;2024-03-02T11:34:31;81.60;;;37.37;;
51957;SDS011;41120;51.820;20.804;2024-03-02T11:37:02;78.73;;;36.53;;
51957;SDS011;41120;51.820;20.804;2024-03-02T11:39:29;75.88;;;34.47;;
51957;SDS011;41120;51.820;20.804;2024-03-02T11:42:03;74.17;;;37.03;;
51957;SDS011;41120;51.820;20.804;2024-03-02T11:44:32;78.70;;;37.33;;
51957;SDS011;41120;51.820;20.804;2024-03-02T11:47:02;77.30;;;35.23;;
51957;SDS011;41120;51.820;20.804;2024-03-02T11:50:11;77.03;;;35.07;;
51957;SDS011;41120;51.820;20.804;2024-03-02T11:52:18;75.57;;;37.03;;
51957;SDS011;41120;51.820;20.804;2024-03-02T11:54:51;77.23;;;36.47;;
51957;SDS011;41120;51.820;20.804;2024-03-02T11:57:18;70.43;;;32.80;;
51957;SDS011;41120;51.820;20.804;2024-03-02T11:59:45;69.73;;;32.10;;
51957;SDS011;41120;51.820;20.804;2024-03-02T12:02:15;76.80;;;37.33;;
51957;SDS011;41120;51.820;20.804;2024-03-02T12:04:42;73.13;;;36.23;;
51957;SDS011;41120;51.820;20.804;2024-03-02T12:07:08;69.97;;;34.50;;
51957;SDS011;41120;51.820;20.804;2024-03-02T12:09:35;76.93;;;36.27;;
51957;SDS011;41120;51.820;20.804;2024-03-02T12:12:02;80.30;;;36.17;;
51957;SDS011;41120;51.820;20.804;2024-03-02T12:14:33;73.33;;;34.87;;
51957;SDS011;41120;51.820;20.804;2024-03-02T12:16:59;72.40;;;34.67;;
51957;SDS011;41120;51.820;20.804;2024-03-02T12:19:26;64.57;;;31.30;;
51957;SDS011;41120;51.820;20.804;2024-03-02T12:21:52;58.63;;;30.43;;
51957;SDS011;41120;51.820;20.804;2024-03-02T12:24:20;68.87;;;32.67;;
51957;SDS011;41120;51.820;20.804;2024-03-02T12:26:46;66.83;;;33.33;;
51957;SDS011;41120;51.820;20.804;2024-03-02T12:29:15;88.43;;;44.23;;
51957;SDS011;41120;51.820;20.804;2024-03-02T12:36:54;63.13;;;34.30;;
51957;SDS011;41120;51.820;20.804;2024-03-02T12:39:28;65.87;;;35.97;;
51957;SDS011;41120;51.820;20.804;2024-03-02T12:47:52;59.77;;;31.23;;
51957;SDS011;41120;51.820;20.804;2024-03-02T12:53:00;60.78;;;30.88;;
51957;SDS011;41120;51.820;20.804;2024-03-02T13:13:48;63.20;;;34.00;;
51957;SDS011;41120;51.820;20.804;2024-03-02T13:16:21;57.67;;;29.37;;
51957;SDS011;41120;51.820;20.804;2024-03-02T13:18:51;60.23;;;30.97;;
51957;SDS011;41120;51.820;20.804;2024-03-02T13:21:22;72.00;;;38.93;;
51957;SDS011;41120;51.820;20.804;2024-03-02T13:26:43;67.57;;;34.83;;
51957;SDS011;41120;51.820;20.804;2024-03-02T13:29:11;58.97;;;30.47;;
51957;SDS011;41120;51.820;20.804;2024-03-02T13:31:39;60.10;;;30.13;;
51957;SDS011;41120;51.820;20.804;2024-03-02T13:34:08;57.90;;;31.20;;
51957;SDS011;41120;51.820;20.804;2024-03-02T13:36:36;63.73;;;33.77;;
51957;SDS011;41120;51.820;20.804;2024-03-02T13:39:08;59.67;;;30.00;;
51957;SDS011;41120;51.820;20.804;2024-03-02T13:41:36;67.97;;;36.27;;
51957;SDS011;41120;51.820;20.804;2024-03-02T13:44:07;57.57;;;31.50;;
51957;SDS011;41120;51.820;20.804;2024-03-02T13:46:43;57.27;;;29.87;;
51957;SDS011;41120;51.820;20.804;2024-03-02T13:49:14;58.47;;;30.50;;
51957;SDS011;41120;51.820;20.804;2024-03-02T13:51:50;53.87;;;28.80;;
51957;SDS011;41120;51.820;20.804;2024-03-02T13:54:25;52.53;;;28.50;;
51957;SDS011;41120;51.820;20.804;2024-03-02T13:57:06;53.93;;;29.70;;
51957;SDS011;41120;51.820;20.804;2024-03-02T14:02:46;57.37;;;29.70;;
51957;SDS011;41120;51.820;20.804;2024-03-02T14:05:17;57.53;;;32.17;;
51957;SDS011;41120;51.820;20.804;2024-03-02T14:07:46;62.17;;;33.50;;
51957;SDS011;41120;51.820;20.804;2024-03-02T14:15:33;60.60;;;36.37;;
51957;SDS011;41120;51.820;20.804;2024-03-02T14:20:32;52.50;;;30.83;;
51957;SDS011;41120;51.820;20.804;2024-03-02T14:25:53;51.50;;;29.10;;
51957;SDS011;41120;51.820;20.804;2024-03-02T14:28:25;51.70;;;29.60;;
51957;SDS011;41120;51.820;20.804;2024-03-02T14:41:55;43.43;;;24.33;;
51957;SDS011;41120;51.820;20.804;2024-03-02T14:44:21;50.67;;;27.67;;
51957;SDS011;41120;51.820;20.804;2024-03-02T14:47:00;47.90;;;26.40;;
51957;SDS011;41120;51.820;20.804;2024-03-02T14:49:44;45.80;;;27.33;;
51957;SDS011;41120;51.820;20.804;2024-03-02T14:52:21;54.73;;;27.30;;
51957;SDS011;41120;51.820;20.804;2024-03-02T14:55:05;73.90;;;40.43;;
51957;SDS011;41120;51.820;20.804;2024-03-02T15:00:23;57.53;;;33.53;;
51957;SDS011;41120;51.820;20.804;2024-03-02T15:02:55;52.33;;;29.30;;
51957;SDS011;41120;51.820;20.804;2024-03-02T15:05:21;49.50;;;27.70;;
51957;SDS011;41120;51.820;20.804;2024-03-02T15:11:06;55.40;;;28.17;;
51957;SDS011;41120;51.820;20.804;2024-03-02T15:13:36;52.93;;;29.83;;
51957;SDS011;41120;51.820;20.804;2024-03-02T15:18:32;54.00;;;28.77;;
51957;SDS011;41120;51.820;20.804;2024-03-02T15:23:56;53.40;;;28.63;;
51957;SDS011;41120;51.820;20.804;2024-03-02T15:29:14;50.00;;;27.47;;
51957;SDS011;41120;51.820;20.804;2024-03-02T15:31:45;52.73;;;27.87;;
51957;SDS011;41120;51.820;20.804;2024-03-02T15:34:25;50.42;;;28.55;;
51957;SDS011;41120;51.820;20.804;2024-03-02T15:36:51;51.40;;;27.63;;
51957;SDS011;41120;51.820;20.804;2024-03-02T15:42:02;56.37;;;30.40;;
51957;SDS011;41120;51.820;20.804;2024-03-02T15:44:31;55.70;;;29.00;;
51957;SDS011;41120;51.820;20.804;2024-03-02T15:47:10;52.20;;;28.47;;
51957;SDS011;41120;51.820;20.804;2024-03-02T15:49:39;57.10;;;29.77;;
51957;SDS011;41120;51.820;20.804;2024-03-02T15:52:16;50.33;;;28.37;;
51957;SDS011;41120;51.820;20.804;2024-03-02T15:57:32;45.33;;;25.73;;
51957;SDS011;41120;51.820;20.804;2024-03-02T16:00:07;52.57;;;26.77;;
51957;SDS011;41120;51.820;20.804;2024-03-02T16:02:39;48.90;;;27.90;;
51957;SDS011;41120;51.820;20.804;2024-03-02T16:05:08;49.10;;;27.60;;
51957;SDS011;41120;51.820;20.804;2024-03-02T16:12:57;52.90;;;28.30;;
51957;SDS011;41120;51.820;20.804;2024-03-02T16:15:38;51.17;;;27.97;;
51957;SDS011;41120;51.820;20.804;2024-03-02T16:18:08;56.30;;;28.67;;
51957;SDS011;41120;51.820;20.804;2024-03-02T16:20:35;59.27;;;30.80;;
51957;SDS011;41120;51.820;20.804;2024-03-02T16:23:03;55.00;;;28.93;;
51957;SDS011;41120;51.820;20.804;2024-03-02T16:28:08;55.60;;;30.00;;
51957;SDS011;41120;51.820;20.804;2024-03-02T16:30:34;60.07;;;31.60;;
51957;SDS011;41120;51.820;20.804;2024-03-02T16:33:03;57.73;;;32.37;;
51957;SDS011;41120;51.820;20.804;2024-03-02T16:35:48;58.80;;;31.73;;
51957;SDS011;41120;51.820;20.804;2024-03-02T16:38:27;59.63;;;29.93;;
51957;SDS011;41120;51.820;20.804;2024-03-02T16:40:53;56.53;;;30.50;;
51957;SDS011;41120;51.820;20.804;2024-03-02T16:43:27;60.87;;;33.27;;